world map with MEH marked

MEH - Airport

This information may not be accurate or current and is not valid for navigation or flight planning. No warranty of fitness for any purpose is made or implied.

flag of Norway

Donate via PayPal

Additional information is available on the NEW Great Circle Mapper

Location
City:  Mehamn, Norway
ICAO / IATA:ENMH / MEH

Details
Type:Airport (Aerodrome, Airfield)
Latitude:71°01'45"N (71.029167)
Longitude:27°49'34"E (27.826111)
Elevation:41 ft (12 m)
Runways:1
Longest:2887 ft (880 m)

Time
Timezone:UTC+1 (DST+4)
Local Time:

Weather
METAR:ENMH  130550Z 23023KT 9999 SCT034 04/M01 Q1017

Related Locations
Nearby:
Farthest:NZWD: 11564 mi / 18610 km
McMurdo Station [Williams Field], Ross Island, AQ

Find:

   beyond  
but within

Other Information
Maps:
Sources:

  


 


Great Circle Mapper   Great Circle Mapper
Great Circle Mapper FAQ   Great Circle Mapper FAQ
  Karl's Home Page
KLSē   KLSē Home
   GC on Facebook
Airlines of the World   Airlines of the World
Donate via PayPal


Copyright © 2004-2018, Karl L. Swartz. All rights reserved.
All trademarks mentioned herein belong to their respective owners.

Please see credits for attribution and copyright information.

Karl Swartz <karl@kls2.com>
  Powered by FreeBSD
Valid HTML 4.01!
Labeled with ICRA
hCard Microformat
Geo Microformat